OOCL Kaohsiung — 9V9830 — position and weather

sailwx.info

Track history (hours):
 
Tides and Currents Weather Stations Pressure Air Temp Water Temp Dewpoint Dewpoint Depression Visibility Wind Speed Wind Dir Waves Ship Positions

OOCL Kaohsiung

Last reported at 2017-Jun-22 14:37 UTC. Time now 2017-Jun-27 17:17 UTC.
Position N 01°15' E 104°04'.

Length 280 m; draft 9.7 m.

Type: Ship. MMSI: 566389000.

Date/timePositionNaut miles runAvg speedWind from/ knotsBaromVisibWave heightAir tempDewpointWater temp
2017-Jun-22 14:37N 01°15' E 104°04'218.3
2017-Jun-22 14:30N 01°15' E 104°02'1413.9
2017-Jun-22 13:30N 01°12' E 103°48'3 6.2
2017-Jun-22 13:00N 01°15' E 103°47'0 0.9
2017-Jun-22 12:28N 01°16' E 103°47'0 0.0
2017-Jun-22 11:58N 01°16' E 103°47'0 0.0
2017-Jun-22 11:28N 01°16' E 103°47'0 0.0
2017-Jun-22 10:58N 01°16' E 103°47'0 0.0
2017-Jun-22 10:25N 01°16' E 103°47'0 0.0
2017-Jun-22 09:58N 01°16' E 103°47'0 0.0
2017-Jun-22 09:28N 01°16' E 103°47'0 0.0
2017-Jun-22 08:58N 01°16' E 103°47'0 0.0
2017-Jun-22 08:25N 01°16' E 103°47'0 0.0
2017-Jun-22 07:55N 01°16' E 103°47'0 0.0
2017-Jun-22 07:28N 01°16' E 103°47'0 0.0
2017-Jun-22 06:58N 01°16' E 103°47'0 0.0
2017-Jun-22 06:28N 01°16' E 103°47'0 0.0
2017-Jun-22 05:58N 01°16' E 103°47'0 0.0
2017-Jun-22 05:28N 01°16' E 103°47'0 0.0
2017-Jun-22 04:58N 01°16' E 103°47'0 0.0
2017-Jun-22 04:25N 01°16' E 103°47'0 0.0
2017-Jun-22 03:58N 01°16' E 103°47'0 0.0
2017-Jun-22 03:25N 01°16' E 103°47'0 0.0
2017-Jun-22 02:55N 01°16' E 103°47'0 0.0
2017-Jun-22 02:19N 01°16' E 103°47'0 0.0
2017-Jun-22 01:55N 01°16' E 103°47'0 0.0
2017-Jun-22 01:28N 01°16' E 103°47'0 0.0
2017-Jun-22 00:58N 01°16' E 103°47'0 0.0
2017-Jun-22 00:28N 01°16' E 103°47'0 0.0
2017-Jun-21 23:58N 01°16' E 103°47'0 0.0
2017-Jun-21 23:28N 01°16' E 103°47'0 0.0
2017-Jun-21 22:55N 01°16' E 103°47'0 0.0
2017-Jun-21 22:25N 01°16' E 103°47'0 0.0
2017-Jun-21 21:58N 01°16' E 103°47'0 0.0
2017-Jun-21 21:25N 01°16' E 103°47'0 0.0
2017-Jun-21 20:58N 01°16' E 103°47'0 0.0
2017-Jun-21 20:28N 01°16' E 103°47'0 0.0
2017-Jun-21 19:58N 01°16' E 103°47'0 0.0
2017-Jun-21 19:28N 01°16' E 103°47'0 0.0
2017-Jun-21 18:55N 01°16' E 103°47'0 0.0
2017-Jun-21 18:25N 01°16' E 103°47'0 0.0
2017-Jun-21 17:58N 01°16' E 103°47'0 0.0
2017-Jun-21 17:28N 01°16' E 103°47'0 0.0
2017-Jun-21 16:55N 01°16' E 103°47'0 0.0
2017-Jun-21 16:28N 01°16' E 103°47'0 0.0
2017-Jun-21 15:58N 01°16' E 103°47'0 0.0
2017-Jun-21 15:28N 01°16' E 103°47'0 0.0
2017-Jun-21 14:58N 01°16' E 103°47'0 0.0
2017-Jun-21 14:28N 01°16' E 103°47'0 0.0
2017-Jun-21 13:28N 01°16' E 103°47'0 0.0
2017-Jun-21 12:58N 01°16' E 103°47'0 0.0
2017-Jun-21 12:28N 01°16' E 103°47'0 0.0
2017-Jun-21 11:58N 01°16' E 103°47'0 0.0
2017-Jun-21 11:28N 01°16' E 103°47'0 0.0
2017-Jun-21 10:55N 01°16' E 103°47'0 0.0
2017-Jun-21 10:28N 01°16' E 103°47'0 0.0
2017-Jun-21 09:58N 01°16' E 103°47'0 0.0
2017-Jun-21 09:28N 01°16' E 103°47'0 0.0
2017-Jun-21 08:55N 01°16' E 103°47'0 0.0
2017-Jun-21 08:28N 01°16' E 103°47'0 0.0
2017-Jun-21 07:58N 01°16' E 103°47'0 0.0
2017-Jun-21 07:28N 01°16' E 103°47'0 0.0
2017-Jun-21 06:59N 01°16' E 103°47'1 1.2
2017-Jun-21 06:30N 01°15' E 103°47'3 5.4
2017-Jun-21 06:00N 01°13' E 103°48'4 8.3
2017-Jun-21 05:31N 01°13' E 103°53'3 5.9
2017-Jun-21 05:00N 01°14' E 103°55'4 7.6
2017-Jun-21 04:30N 01°15' E 103°59'3 6.4
2017-Jun-21 03:59N 01°16' E 104°02'  
Track history (hours):
 
Tides and Currents Weather Stations Pressure Air Temp Water Temp Dewpoint Dewpoint Depression Visibility Wind Speed Wind Dir Waves Ship Positions

OOCL Kaohsiung

Last reported at 2017-Jun-22 14:37 UTC. Time now 2017-Jun-27 17:17 UTC.
Position N 01°15' E 104°04'.

Length 280 m; draft 9.7 m.

Type: Ship. MMSI: 566389000.

Date/timePositionNaut miles runAvg speedWind from/ knotsBaromVisibWave heightAir tempDewpointWater temp
2017-Jun-22 14:37N 01°15' E 104°04'218.3
2017-Jun-22 14:30N 01°15' E 104°02'1413.9
2017-Jun-22 13:30N 01°12' E 103°48'3 6.2
2017-Jun-22 13:00N 01°15' E 103°47'0 0.9
2017-Jun-22 12:28N 01°16' E 103°47'0 0.0
2017-Jun-22 11:58N 01°16' E 103°47'0 0.0
2017-Jun-22 11:28N 01°16' E 103°47'0 0.0
2017-Jun-22 10:58N 01°16' E 103°47'0 0.0
2017-Jun-22 10:25N 01°16' E 103°47'0 0.0
2017-Jun-22 09:58N 01°16' E 103°47'0 0.0
2017-Jun-22 09:28N 01°16' E 103°47'0 0.0
2017-Jun-22 08:58N 01°16' E 103°47'0 0.0
2017-Jun-22 08:25N 01°16' E 103°47'0 0.0
2017-Jun-22 07:55N 01°16' E 103°47'0 0.0
2017-Jun-22 07:28N 01°16' E 103°47'0 0.0
2017-Jun-22 06:58N 01°16' E 103°47'0 0.0
2017-Jun-22 06:28N 01°16' E 103°47'0 0.0
2017-Jun-22 05:58N 01°16' E 103°47'0 0.0
2017-Jun-22 05:28N 01°16' E 103°47'0 0.0
2017-Jun-22 04:58N 01°16' E 103°47'0 0.0
2017-Jun-22 04:25N 01°16' E 103°47'0 0.0
2017-Jun-22 03:58N 01°16' E 103°47'0 0.0
2017-Jun-22 03:25N 01°16' E 103°47'0 0.0
2017-Jun-22 02:55N 01°16' E 103°47'0 0.0
2017-Jun-22 02:19N 01°16' E 103°47'0 0.0
2017-Jun-22 01:55N 01°16' E 103°47'0 0.0
2017-Jun-22 01:28N 01°16' E 103°47'0 0.0
2017-Jun-22 00:58N 01°16' E 103°47'0 0.0
2017-Jun-22 00:28N 01°16' E 103°47'0 0.0
2017-Jun-21 23:58N 01°16' E 103°47'0 0.0
2017-Jun-21 23:28N 01°16' E 103°47'0 0.0
2017-Jun-21 22:55N 01°16' E 103°47'0 0.0
2017-Jun-21 22:25N 01°16' E 103°47'0 0.0
2017-Jun-21 21:58N 01°16' E 103°47'0 0.0
2017-Jun-21 21:25N 01°16' E 103°47'0 0.0
2017-Jun-21 20:58N 01°16' E 103°47'0 0.0
2017-Jun-21 20:28N 01°16' E 103°47'0 0.0
2017-Jun-21 19:58N 01°16' E 103°47'0 0.0
2017-Jun-21 19:28N 01°16' E 103°47'0 0.0
2017-Jun-21 18:55N 01°16' E 103°47'0 0.0
2017-Jun-21 18:25N 01°16' E 103°47'0 0.0
2017-Jun-21 17:58N 01°16' E 103°47'0 0.0
2017-Jun-21 17:28N 01°16' E 103°47'0 0.0
2017-Jun-21 16:55N 01°16' E 103°47'0 0.0
2017-Jun-21 16:28N 01°16' E 103°47'0 0.0
2017-Jun-21 15:58N 01°16' E 103°47'0 0.0
2017-Jun-21 15:28N 01°16' E 103°47'0 0.0
2017-Jun-21 14:58N 01°16' E 103°47'0 0.0
2017-Jun-21 14:28N 01°16' E 103°47'0 0.0
2017-Jun-21 13:28N 01°16' E 103°47'0 0.0
2017-Jun-21 12:58N 01°16' E 103°47'0 0.0
2017-Jun-21 12:28N 01°16' E 103°47'0 0.0
2017-Jun-21 11:58N 01°16' E 103°47'0 0.0
2017-Jun-21 11:28N 01°16' E 103°47'0 0.0
2017-Jun-21 10:55N 01°16' E 103°47'0 0.0
2017-Jun-21 10:28N 01°16' E 103°47'0 0.0
2017-Jun-21 09:58N 01°16' E 103°47'0 0.0
2017-Jun-21 09:28N 01°16' E 103°47'0 0.0
2017-Jun-21 08:55N 01°16' E 103°47'0 0.0
2017-Jun-21 08:28N 01°16' E 103°47'0 0.0
2017-Jun-21 07:58N 01°16' E 103°47'0 0.0
2017-Jun-21 07:28N 01°16' E 103°47'0 0.0
2017-Jun-21 06:59N 01°16' E 103°47'1 1.2
2017-Jun-21 06:30N 01°15' E 103°47'3 5.4
2017-Jun-21 06:00N 01°13' E 103°48'4 8.3
2017-Jun-21 05:31N 01°13' E 103°53'3 5.9
2017-Jun-21 05:00N 01°14' E 103°55'4 7.6
2017-Jun-21 04:30N 01°15' E 103°59'3 6.4
2017-Jun-21 03:59N 01°16' E 104°02'  

Dump ship's entire track history